Time;durP1;ratioP1;P1;durP2;ratioP2;P2;SDS_P1;SDS_P2;PMS_P1;PMS_P2;Temp;Humidity;BMP_temperature;BMP_pressure;BME280_temperature;BME280_humidity;BME280_pressure;Samples;Min_cycle;Max_cycle;Signal;HPM_P1;HPM_P2
2021/07/21 00:01:11;;;;;;;1999.90;999.90;;;;;;;;;;5044096;28;20037;-81
2021/07/21 00:03:37;;;;;;;1999.90;999.90;;;;;;;;;;5045876;28;20060;-81
2021/07/21 00:06:03;;;;;;;1999.90;999.90;;;;;;;;;;5043613;28;20049;-80
2021/07/21 00:08:28;;;;;;;1999.90;999.90;;;;;;;;;;5045955;28;20024;-80
2021/07/21 00:13:27;;;;;;;1999.90;999.90;;;;;;;;;;5043804;28;20536;-81
2021/07/21 00:13:40;;;;;;;1999.90;999.90;;;;;;;;;;5048068;28;20408;-81
2021/07/21 00:16:19;;;;;;;1999.90;999.90;;;;;;;;;;5037110;28;20094;-81
2021/07/21 00:18:50;;;;;;;1999.90;999.90;;;;;;;;;;5045819;28;20029;-81
2021/07/21 00:21:21;;;;;;;1999.90;999.90;;;;;;;;;;5061604;28;20041;-81
2021/07/21 00:23:47;;;;;;;1999.90;999.90;;;;;;;;;;5060275;28;20028;-81
2021/07/21 00:26:12;;;;;;;1999.90;999.90;;;;;;;;;;5058765;28;20025;-81
2021/07/21 00:28:41;;;;;;;1999.90;999.90;;;;;;;;;;5060680;28;20060;-81
2021/07/21 00:31:08;;;;;;;1999.90;999.90;;;;;;;;;;5060062;28;20043;-81
2021/07/21 00:33:33;;;;;;;1999.90;999.90;;;;;;;;;;5057678;28;20025;-81
2021/07/21 00:35:59;;;;;;;1999.90;999.90;;;;;;;;;;5043903;28;20040;-81
2021/07/21 00:38:24;;;;;;;1999.90;999.90;;;;;;;;;;5034072;28;20575;-81
2021/07/21 00:40:51;;;;;;;1999.90;999.90;;;;;;;;;;5045476;28;20029;-81
2021/07/21 00:43:16;;;;;;;1999.90;999.90;;;;;;;;;;5041786;28;20123;-81
2021/07/21 00:45:42;;;;;;;1999.90;999.90;;;;;;;;;;5043095;28;20131;-81
2021/07/21 00:48:07;;;;;;;1999.90;999.90;;;;;;;;;;5033609;28;20029;-81
2021/07/21 00:50:33;;;;;;;1999.90;999.90;;;;;;;;;;5038958;28;20025;-81
2021/07/21 00:52:59;;;;;;;1999.90;999.90;;;;;;;;;;5039296;28;20025;-81
2021/07/21 00:55:26;;;;;;;1999.90;999.90;;;;;;;;;;5043515;28;20025;-81
2021/07/21 00:57:52;;;;;;;1999.90;999.90;;;;;;;;;;5042830;28;20025;-81
2021/07/21 01:00:19;;;;;;;58.25;53.33;;;;;;;;;;5043355;28;20029;-81
2021/07/21 01:02:46;;;;;;;1999.90;999.90;;;;;;;;;;5040595;28;20033;-80
2021/07/21 01:05:22;;;;;;;13.05;6.88;;;;;;;;;;5047427;28;20090;-81
2021/07/21 01:07:49;;;;;;;1999.90;999.90;;;;;;;;;;5030387;28;20040;-81
2021/07/21 01:10:17;;;;;;;1999.90;999.90;;;;;;;;;;5044760;28;20024;-81
2021/07/21 01:12:48;;;;;;;1999.90;999.90;;;;;;;;;;5043806;28;20079;-81
2021/07/21 01:15:19;;;;;;;1999.90;999.90;;;;;;;;;;5045512;28;20082;-80
2021/07/21 01:17:52;;;;;;;1999.90;999.90;;;;;;;;;;5042111;28;20443;-81
2021/07/21 01:20:55;;;;;;;1999.90;999.90;;;;;;;;;;5047897;28;20734;-80
2021/07/21 01:23:50;;;;;;;1999.90;999.90;;;;;;;;;;5037233;28;20060;-81
2021/07/21 01:26:22;;;;;;;1999.90;999.90;;;;;;;;;;5039604;28;20040;-81
2021/07/21 01:28:50;;;;;;;1999.90;999.90;;;;;;;;;;5038661;28;20148;-81
2021/07/21 01:31:20;;;;;;;1999.90;999.90;;;;;;;;;;5037499;28;20490;-81
2021/07/21 01:33:48;;;;;;;;;;;;;;;;;;5036125;28;20029;-81
2021/07/21 01:36:38;;;;;;;1999.90;999.90;;;;;;;;;;5037893;28;19919;-81
2021/07/21 01:39:09;;;;;;;13.40;3.88;;;;;;;;;;5041567;28;20036;-81
2021/07/21 01:41:38;;;;;;;12.73;4.43;;;;;;;;;;5045893;28;20112;-81
2021/07/21 01:44:11;;;;;;;7.22;3.63;;;;;;;;;;5044939;28;20039;-81
2021/07/21 01:46:40;;;;;;;8.30;3.65;;;;;;;;;;5038769;28;20503;-81
2021/07/21 01:49:08;;;;;;;1999.90;999.90;;;;;;;;;;5045835;28;20116;-80
2021/07/21 01:51:34;;;;;;;1999.90;999.90;;;;;;;;;;5039975;28;20116;-80
2021/07/21 01:54:02;;;;;;;1999.90;999.90;;;;;;;;;;5046227;28;20108;-81
2021/07/21 01:56:30;;;;;;;1999.90;999.90;;;;;;;;;;5047788;28;20500;-81
2021/07/21 01:58:56;;;;;;;1999.90;999.90;;;;;;;;;;5052227;28;20036;-81
2021/07/21 02:01:25;;;;;;;1999.90;999.90;;;;;;;;;;5049158;28;20094;-81
2021/07/21 02:03:51;;;;;;;1999.90;999.90;;;;;;;;;;5042816;28;20033;-81
2021/07/21 02:06:16;;;;;;;1999.90;999.90;;;;;;;;;;5050638;28;20389;-81
2021/07/21 02:08:43;;;;;;;1999.90;999.90;;;;;;;;;;5041570;28;20079;-81
2021/07/21 02:11:09;;;;;;;1999.90;999.90;;;;;;;;;;5050197;28;20025;-81
2021/07/21 02:13:37;;;;;;;1999.90;999.90;;;;;;;;;;5051187;28;20040;-81
2021/07/21 02:16:05;;;;;;;1999.90;999.90;;;;;;;;;;5043885;28;20021;-81
2021/07/21 02:18:31;;;;;;;1999.90;999.90;;;;;;;;;;5049916;28;20029;-81
2021/07/21 02:21:00;;;;;;;1999.90;999.90;;;;;;;;;;5044723;28;20033;-81
2021/07/21 02:23:27;;;;;;;1999.90;999.90;;;;;;;;;;5060189;28;20060;-81
2021/07/21 02:25:58;;;;;;;1999.90;999.90;;;;;;;;;;5047139;28;20128;-81
2021/07/21 02:28:24;;;;;;;1999.90;999.90;;;;;;;;;;5042479;28;20226;-81
2021/07/21 02:30:52;;;;;;;1999.90;999.90;;;;;;;;;;5043736;28;20453;-81
2021/07/21 02:33:22;;;;;;;1999.90;999.90;;;;;;;;;;5047670;28;20016;-81
2021/07/21 02:35:48;;;;;;;1999.90;999.90;;;;;;;;;;5042341;28;20125;-81
2021/07/21 02:38:13;;;;;;;1999.90;999.90;;;;;;;;;;5049232;28;20064;-81
2021/07/21 02:40:43;;;;;;;1999.90;999.90;;;;;;;;;;5045153;28;20098;-81
2021/07/21 02:43:09;;;;;;;1999.90;999.90;;;;;;;;;;5041031;28;20106;-81
2021/07/21 02:45:35;;;;;;;1999.90;999.90;;;;;;;;;;5045438;28;20082;-81
2021/07/21 02:48:03;;;;;;;1999.90;999.90;;;;;;;;;;5041715;28;20243;-81
2021/07/21 02:50:29;;;;;;;1999.90;999.90;;;;;;;;;;5049326;28;20021;-81
2021/07/21 02:53:02;;;;;;;1999.90;999.90;;;;;;;;;;5048156;28;20037;-81
2021/07/21 02:55:35;;;;;;;1999.90;999.90;;;;;;;;;;5045984;28;20025;-81
2021/07/21 02:58:06;;;;;;;1999.90;999.90;;;;;;;;;;5047821;28;20334;-81
2021/07/21 03:00:32;;;;;;;1999.90;999.90;;;;;;;;;;5046590;28;20477;-81
2021/07/21 03:03:01;;;;;;;1999.90;999.90;;;;;;;;;;5046110;28;20041;-81
2021/07/21 03:05:30;;;;;;;1999.90;999.90;;;;;;;;;;5047252;28;20094;-82
2021/07/21 03:08:00;;;;;;;1999.90;999.90;;;;;;;;;;5050734;28;20060;-81
2021/07/21 03:10:26;;;;;;;1999.90;999.90;;;;;;;;;;5049141;28;20033;-81
2021/07/21 03:13:17;;;;;;;1999.90;999.90;;;;;;;;;;5050125;28;20021;-81
2021/07/21 03:15:46;;;;;;;1999.90;999.90;;;;;;;;;;5047985;28;20021;-81
2021/07/21 03:18:16;;;;;;;1999.90;999.90;;;;;;;;;;5043644;28;20043;-81
2021/07/21 03:20:42;;;;;;;1999.90;999.90;;;;;;;;;;5044769;28;20073;-81
2021/07/21 03:23:09;;;;;;;1999.90;999.90;;;;;;;;;;5049661;28;20132;-81
2021/07/21 03:25:35;;;;;;;1999.90;999.90;;;;;;;;;;5043491;28;20082;-82
2021/07/21 03:28:02;;;;;;;1999.90;999.90;;;;;;;;;;5041091;28;20025;-81
2021/07/21 03:30:28;;;;;;;1999.90;999.90;;;;;;;;;;5046561;28;20021;-81
2021/07/21 03:32:55;;;;;;;1999.90;999.90;;;;;;;;;;5047219;28;20025;-81
2021/07/21 03:35:25;;;;;;;1999.90;999.90;;;;;;;;;;5047265;28;20354;-81
2021/07/21 03:37:50;;;;;;;;;;;;;;;;;;5047645;28;20490;-81
2021/07/21 03:40:18;;;;;;;1999.90;999.90;;;;;;;;;;5045150;28;19921;-82
2021/07/21 03:42:44;;;;;;;1999.90;999.90;;;;;;;;;;5048564;28;20037;-82
2021/07/21 03:45:12;;;;;;;1999.90;999.90;;;;;;;;;;5045096;28;20025;-82
2021/07/21 03:47:40;;;;;;;1999.90;999.90;;;;;;;;;;5046110;28;20025;-82
2021/07/21 03:50:07;;;;;;;1999.90;999.90;;;;;;;;;;5040960;28;20564;-82
2021/07/21 03:52:35;;;;;;;1999.90;999.90;;;;;;;;;;5045019;28;20044;-82
2021/07/21 03:55:03;;;;;;;1999.90;999.90;;;;;;;;;;5046192;28;20029;-82
2021/07/21 03:57:29;;;;;;;1999.90;999.90;;;;;;;;;;5046445;28;20035;-82
2021/07/21 03:59:56;;;;;;;1999.90;999.90;;;;;;;;;;5047484;28;20503;-82
2021/07/21 04:02:22;;;;;;;1999.90;999.90;;;;;;;;;;5035068;28;20018;-82
2021/07/21 04:04:49;;;;;;;1999.90;999.90;;;;;;;;;;5045518;28;20030;-82
2021/07/21 04:07:16;;;;;;;1999.90;999.90;;;;;;;;;;5044030;28;20083;-82
2021/07/21 04:09:44;;;;;;;6.90;5.47;;;;;;;;;;5037653;28;20044;-82
2021/07/21 04:12:11;;;;;;;1999.90;999.90;;;;;;;;;;5042795;28;20032;-82
2021/07/21 04:14:38;;;;;;;1999.90;999.90;;;;;;;;;;5047071;28;20029;-82
2021/07/21 04:17:05;;;;;;;187.38;143.60;;;;;;;;;;5039653;28;20303;-81
2021/07/21 04:19:33;;;;;;;17.92;10.57;;;;;;;;;;5042308;28;20028;-81
2021/07/21 04:21:58;;;;;;;16.58;9.45;;;;;;;;;;5038711;28;20405;-81
2021/07/21 04:24:25;;;;;;;15.85;9.10;;;;;;;;;;5044389;28;20048;-81
2021/07/21 04:26:51;;;;;;;18.05;9.70;;;;;;;;;;5045282;28;20091;-81
2021/07/21 04:29:23;;;;;;;17.55;9.55;;;;;;;;;;5045220;28;20029;-81
2021/07/21 04:31:50;;;;;;;22.15;9.55;;;;;;;;;;5035098;28;20030;-81
2021/07/21 04:34:17;;;;;;;17.80;9.85;;;;;;;;;;5041973;28;20025;-81
2021/07/21 04:36:43;;;;;;;19.40;9.80;;;;;;;;;;5047471;28;20032;-81
2021/07/21 04:39:16;;;;;;;17.58;10.18;;;;;;;;;;5044738;28;20512;-81
2021/07/21 04:41:43;;;;;;;19.30;9.88;;;;;;;;;;5036269;28;20134;-81
2021/07/21 04:44:08;;;;;;;14.95;9.00;;;;;;;;;;5046512;28;20426;-81
2021/07/21 04:46:35;;;;;;;16.58;8.82;;;;;;;;;;5047049;28;20029;-81
2021/07/21 04:49:02;;;;;;;19.08;9.75;;;;;;;;;;5045078;28;20270;-81
2021/07/21 04:51:29;;;;;;;20.13;10.25;;;;;;;;;;5042164;28;20020;-81
2021/07/21 04:53:59;;;;;;;18.20;9.45;;;;;;;;;;5039812;28;20029;-81
2021/07/21 04:56:24;;;;;;;20.40;10.50;;;;;;;;;;5046408;28;20100;-81
2021/07/21 04:58:49;;;;;;;20.30;10.80;;;;;;;;;;5043882;28;20163;-82
2021/07/21 05:01:15;;;;;;;17.55;9.48;;;;;;;;;;5043321;28;20033;-82
2021/07/21 05:03:41;;;;;;;20.73;10.10;;;;;;;;;;5042387;28;20033;-81
2021/07/21 05:06:07;;;;;;;18.52;10.50;;;;;;;;;;5047442;28;20098;-81
2021/07/21 05:08:33;;;;;;;18.05;9.75;;;;;;;;;;5038968;28;20086;-81
2021/07/21 05:10:58;;;;;;;17.02;10.23;;;;;;;;;;5039859;28;20022;-81
2021/07/21 05:13:24;;;;;;;17.42;10.77;;;;;;;;;;5046605;28;20033;-81
2021/07/21 05:15:49;;;;;;;19.40;10.50;;;;;;;;;;5046867;28;20094;-80
2021/07/21 05:18:15;;;;;;;17.05;10.45;;;;;;;;;;5043157;28;20116;-81
2021/07/21 05:20:41;;;;;;;19.52;10.15;;;;;;;;;;5044177;28;20037;-80
2021/07/21 05:23:07;;;;;;;19.27;10.55;;;;;;;;;;5041039;28;20080;-81
2021/07/21 05:25:35;;;;;;;25.02;10.43;;;;;;;;;;5042484;28;20074;-81
2021/07/21 05:28:04;;;;;;;15.88;10.05;;;;;;;;;;5038865;28;20112;-81
2021/07/21 05:30:29;;;;;;;18.30;11.52;;;;;;;;;;5036782;28;20074;-81
2021/07/21 05:32:55;;;;;;;17.17;10.50;;;;;;;;;;5042247;28;20477;-81
2021/07/21 05:35:20;;;;;;;21.65;11.30;;;;;;;;;;5044607;28;20040;-81
2021/07/21 05:37:45;;;;;;;18.15;10.98;;;;;;;;;;5042234;28;20025;-81
2021/07/21 05:40:11;;;;;;;18.77;10.82;;;;;;;;;;5038309;28;20028;-80
2021/07/21 05:42:37;;;;;;;20.27;11.13;;;;;;;;;;5038456;28;20024;-80
2021/07/21 05:45:03;;;;;;;18.08;11.27;;;;;;;;;;5039500;28;20024;-81
2021/07/21 05:47:28;;;;;;;21.98;12.10;;;;;;;;;;5040335;28;20313;-80
2021/07/21 05:49:54;;;;;;;26.58;11.55;;;;;;;;;;5033852;28;20104;-81
2021/07/21 05:52:19;;;;;;;24.92;12.07;;;;;;;;;;5034303;28;20430;-82
2021/07/21 05:54:45;;;;;;;19.33;11.32;;;;;;;;;;5033171;28;20032;-80
2021/07/21 05:57:10;;;;;;;21.85;10.90;;;;;;;;;;5035445;28;20099;-80
2021/07/21 05:59:36;;;;;;;20.25;10.93;;;;;;;;;;5046223;28;20025;-80
2021/07/21 06:02:01;;;;;;;20.08;10.52;;;;;;;;;;5034414;28;20041;-83
2021/07/21 06:04:27;;;;;;;18.65;10.75;;;;;;;;;;5040269;28;20020;-83
2021/07/21 06:06:53;;;;;;;19.42;11.38;;;;;;;;;;5036515;28;20124;-83
2021/07/21 06:09:18;;;;;;;18.52;11.30;;;;;;;;;;5037990;28;20512;-82
2021/07/21 06:11:44;;;;;;;24.15;19.42;;;;;;;;;;5044949;28;20021;-83
2021/07/21 06:14:10;;;;;;;1059.35;516.30;;;;;;;;;;5041883;28;20393;-83
2021/07/21 06:16:36;;;;;;;548.72;294.42;;;;;;;;;;5039620;28;20120;-83
2021/07/21 06:19:02;;;;;;;1514.95;754.58;;;;;;;;;;5043632;28;20096;-78
2021/07/21 06:21:27;;;;;;;20.27;11.25;;;;;;;;;;5036864;28;20025;-79
2021/07/21 06:23:53;;;;;;;14.85;8.32;;;;;;;;;;5039941;28;20091;-79
2021/07/21 06:26:18;;;;;;;11.40;6.53;;;;;;;;;;5041849;28;20459;-79
2021/07/21 06:28:44;;;;;;;20.65;10.55;;;;;;;;;;5038638;28;20017;-79
2021/07/21 06:31:10;;;;;;;21.48;10.18;;;;;;;;;;5042578;28;20029;-78
2021/07/21 06:33:35;;;;;;;20.27;10.02;;;;;;;;;;5034029;28;20099;-78
2021/07/21 06:36:02;;;;;;;21.17;11.73;;;;;;;;;;5041901;28;20476;-78
2021/07/21 06:38:28;;;;;;;20.45;12.05;;;;;;;;;;5043118;28;20035;-77
2021/07/21 06:40:53;;;;;;;18.85;10.93;;;;;;;;;;5045812;28;20108;-78
2021/07/21 06:43:19;;;;;;;22.85;11.25;;;;;;;;;;5039699;28;20496;-77
2021/07/21 06:45:44;;;;;;;22.63;11.05;;;;;;;;;;5041725;28;20493;-76
2021/07/21 06:48:10;;;;;;;24.60;11.73;;;;;;;;;;5044779;28;20041;-77
2021/07/21 06:50:35;;;;;;;21.73;11.27;;;;;;;;;;5038424;28;20025;-77
2021/07/21 06:53:02;;;;;;;20.52;11.15;;;;;;;;;;5039703;28;20052;-78
2021/07/21 06:55:27;;;;;;;20.00;11.35;;;;;;;;;;5043938;28;20032;-77
2021/07/21 06:57:53;;;;;;;22.63;10.85;;;;;;;;;;5034902;28;20492;-77
2021/07/21 07:00:19;;;;;;;21.98;10.85;;;;;;;;;;5043715;28;20135;-77
2021/07/21 07:02:44;;;;;;;21.35;11.35;;;;;;;;;;5041937;28;20021;-77
2021/07/21 07:05:10;;;;;;;24.15;11.80;;;;;;;;;;5044838;28;20028;-77
2021/07/21 07:07:35;;;;;;;21.42;10.82;;;;;;;;;;5041395;28;20044;-77
2021/07/21 07:10:02;;;;;;;21.23;10.98;;;;;;;;;;5041683;28;20390;-77
2021/07/21 07:12:28;;;;;;;20.15;10.43;;;;;;;;;;5040011;28;20028;-77
2021/07/21 07:14:53;;;;;;;20.02;10.88;;;;;;;;;;5040851;28;20124;-77
2021/07/21 07:17:18;;;;;;;18.13;10.98;;;;;;;;;;5041255;28;20648;-77
2021/07/21 07:19:44;;;;;;;22.58;11.65;;;;;;;;;;5044442;28;20024;-77
2021/07/21 07:22:09;;;;;;;20.98;11.20;;;;;;;;;;5040558;28;20032;-77
2021/07/21 07:24:35;;;;;;;18.88;10.93;;;;;;;;;;5044642;28;20028;-77
2021/07/21 07:27:01;;;;;;;22.50;12.20;;;;;;;;;;5040519;28;20116;-77
2021/07/21 07:29:27;;;;;;;23.65;11.35;;;;;;;;;;5040778;28;20033;-78
2021/07/21 07:31:52;;;;;;;20.65;10.93;;;;;;;;;;5034899;28;20029;-77
2021/07/21 07:34:19;;;;;;;20.88;10.82;;;;;;;;;;5039509;28;20017;-77
2021/07/21 07:36:45;;;;;;;18.58;10.77;;;;;;;;;;5046236;28;20033;-77
2021/07/21 07:39:11;;;;;;;22.25;11.98;;;;;;;;;;5039026;28;20392;-77
2021/07/21 07:41:37;;;;;;;22.20;12.15;;;;;;;;;;5046053;28;20033;-77
2021/07/21 07:44:04;;;;;;;24.38;12.05;;;;;;;;;;5045520;28;20496;-77
2021/07/21 07:46:30;;;;;;;18.08;10.50;;;;;;;;;;5041228;28;20063;-78
2021/07/21 07:48:57;;;;;;;25.52;11.85;;;;;;;;;;5045565;28;20041;-79
2021/07/21 07:51:23;;;;;;;21.77;11.32;;;;;;;;;;5038946;28;20017;-77
2021/07/21 07:53:50;;;;;;;23.92;12.70;;;;;;;;;;5035877;28;20485;-79
2021/07/21 07:56:15;;;;;;;27.05;12.00;;;;;;;;;;5034403;28;20025;-80
2021/07/21 07:58:41;;;;;;;19.15;11.10;;;;;;;;;;5042528;28;20392;-81
2021/07/21 08:01:06;;;;;;;21.23;10.48;;;;;;;;;;5035648;28;20032;-82
2021/07/21 08:03:32;;;;;;;23.02;12.27;;;;;;;;;;5036355;28;20489;-81
2021/07/21 08:05:59;;;;;;;18.65;11.05;;;;;;;;;;5044961;28;20358;-81
2021/07/21 08:08:25;;;;;;;20.17;11.85;;;;;;;;;;5039617;28;20029;-77
2021/07/21 08:10:51;;;;;;;19.50;11.60;;;;;;;;;;5031116;28;20064;-79
2021/07/21 08:13:19;;;;;;;18.40;11.07;;;;;;;;;;5035696;28;20107;-77
2021/07/21 08:15:45;;;;;;;20.40;11.00;;;;;;;;;;5037480;28;20029;-77
2021/07/21 08:18:12;;;;;;;17.60;10.88;;;;;;;;;;5038186;28;20124;-79
2021/07/21 08:20:38;;;;;;;20.90;11.07;;;;;;;;;;5030644;28;20033;-78
2021/07/21 08:23:04;;;;;;;21.02;11.10;;;;;;;;;;5039704;28;20030;-78
2021/07/21 08:25:30;;;;;;;20.42;11.55;;;;;;;;;;5044579;28;20032;-77
2021/07/21 08:27:56;;;;;;;21.23;11.40;;;;;;;;;;5043261;28;20082;-77
2021/07/21 08:30:22;;;;;;;18.13;11.02;;;;;;;;;;5044443;28;20025;-76
2021/07/21 08:32:50;;;;;;;18.00;10.77;;;;;;;;;;5041584;28;20036;-77
2021/07/21 08:35:20;;;;;;;21.63;11.70;;;;;;;;;;5039804;28;20276;-78
2021/07/21 08:37:46;;;;;;;19.58;11.23;;;;;;;;;;5041387;28;20025;-78
2021/07/21 08:40:13;;;;;;;20.15;12.07;;;;;;;;;;5038504;28;20035;-79
2021/07/21 08:42:39;;;;;;;22.35;12.38;;;;;;;;;;5036055;28;20378;-79
2021/07/21 08:45:07;;;;;;;20.40;10.98;;;;;;;;;;5045197;28;20107;-78
2021/07/21 08:47:32;;;;;;;18.52;11.82;;;;;;;;;;5048156;28;20040;-78
2021/07/21 08:49:59;;;;;;;19.17;11.60;;;;;;;;;;5041416;28;20083;-79
2021/07/21 08:52:26;;;;;;;17.63;11.15;;;;;;;;;;5035098;28;20045;-76
2021/07/21 08:54:56;;;;;;;24.15;12.18;;;;;;;;;;5037943;28;20029;-77
2021/07/21 08:57:22;;;;;;;22.70;13.27;;;;;;;;;;5049549;28;20029;-77
2021/07/21 08:59:47;;;;;;;22.50;12.18;;;;;;;;;;5044229;28;20109;-77
2021/07/21 09:02:16;;;;;;;22.58;12.07;;;;;;;;;;5049763;28;20115;-78
2021/07/21 09:04:42;;;;;;;20.38;11.60;;;;;;;;;;5049399;28;20052;-77
2021/07/21 09:07:07;;;;;;;17.98;11.40;;;;;;;;;;5046839;28;20658;-78
2021/07/21 09:09:34;;;;;;;20.63;11.63;;;;;;;;;;5047313;28;20393;-78
2021/07/21 09:12:00;;;;;;;22.80;11.77;;;;;;;;;;5039011;28;20482;-78
2021/07/21 09:14:27;;;;;;;22.85;10.93;;;;;;;;;;5035638;28;20072;-78
2021/07/21 09:17:11;;;;;;;23.33;11.38;;;;;;;;;;5044910;28;20029;-78
2021/07/21 09:19:39;;;;;;;19.02;11.85;;;;;;;;;;5038899;28;20059;-78
2021/07/21 09:22:19;;;;;;;16.90;10.98;;;;;;;;;;5046216;28;20068;-79
2021/07/21 09:24:46;;;;;;;18.38;11.48;;;;;;;;;;5041852;28;20083;-79
2021/07/21 09:27:12;;;;;;;21.13;11.30;;;;;;;;;;5044349;28;20093;-79
2021/07/21 09:29:41;;;;;;;19.48;11.50;;;;;;;;;;5036306;28;20060;-79
2021/07/21 09:32:08;;;;;;;17.40;11.10;;;;;;;;;;5041409;28;20071;-79
2021/07/21 09:34:34;;;;;;;20.73;10.80;;;;;;;;;;5043539;28;20056;-80
2021/07/21 09:37:12;;;;;;;18.58;10.40;;;;;;;;;;5040680;28;20048;-78
2021/07/21 09:39:42;;;;;;;22.35;11.30;;;;;;;;;;5032324;28;20112;-79
2021/07/21 09:42:10;;;;;;;16.67;11.38;;;;;;;;;;5033971;28;20069;-77
2021/07/21 09:44:38;;;;;;;21.58;10.30;;;;;;;;;;5038770;28;20026;-79
2021/07/21 09:47:09;;;;;;;17.85;10.93;;;;;;;;;;5040005;28;20037;-77
2021/07/21 09:49:35;;;;;;;19.20;10.90;;;;;;;;;;5038716;28;20040;-78
2021/07/21 09:52:23;;;;;;;17.95;10.75;;;;;;;;;;5038660;28;20021;-78
2021/07/21 09:55:09;;;;;;;18.30;11.73;;;;;;;;;;5043395;28;20048;-78
2021/07/21 09:57:36;;;;;;;19.48;11.85;;;;;;;;;;5035725;28;20036;-78
2021/07/21 10:00:18;;;;;;;17.83;10.93;;;;;;;;;;5032685;28;20033;-78
2021/07/21 10:02:49;;;;;;;17.33;10.80;;;;;;;;;;5041217;28;20048;-78
2021/07/21 10:05:14;;;;;;;20.33;10.93;;;;;;;;;;5045065;28;20025;-78
2021/07/21 10:10:14;;;;;;;17.33;10.52;;;;;;;;;;5040284;28;20017;-78
2021/07/21 10:12:40;;;;;;;17.55;10.50;;;;;;;;;;5039751;28;20146;-78
2021/07/21 10:15:06;;;;;;;17.35;10.20;;;;;;;;;;5039870;28;20020;-78
2021/07/21 10:17:31;;;;;;;17.65;10.02;;;;;;;;;;5040729;28;20029;-78
2021/07/21 10:19:57;;;;;;;17.38;10.98;;;;;;;;;;5041265;28;20030;-78
2021/07/21 10:22:24;;;;;;;17.77;10.55;;;;;;;;;;5040183;28;20028;-78
2021/07/21 10:24:49;;;;;;;16.85;10.35;;;;;;;;;;5049073;28;20033;-78
2021/07/21 10:27:15;;;;;;;14.65;10.60;;;;;;;;;;5042936;28;20024;-78
2021/07/21 10:29:42;;;;;;;16.50;10.23;;;;;;;;;;5044770;28;20036;-79
2021/07/21 10:32:10;;;;;;;17.77;10.70;;;;;;;;;;5040577;28;20697;-78
2021/07/21 10:34:36;;;;;;;20.63;10.00;;;;;;;;;;5045676;28;20047;-78
2021/07/21 10:37:02;;;;;;;17.42;10.88;;;;;;;;;;5038630;28;20032;-77
2021/07/21 10:39:30;;;;;;;14.18;10.02;;;;;;;;;;5040801;28;20041;-77
2021/07/21 10:42:00;;;;;;;17.60;10.20;;;;;;;;;;5041578;28;20164;-77
2021/07/21 10:44:25;;;;;;;15.82;9.80;;;;;;;;;;5040116;28;20028;-77
2021/07/21 10:46:52;;;;;;;19.13;10.07;;;;;;;;;;5045405;28;20125;-77
2021/07/21 10:49:24;;;;;;;16.20;10.27;;;;;;;;;;5048410;28;20032;-77
2021/07/21 10:54:48;;;;;;;18.35;10.52;;;;;;;;;;5037350;28;20033;-76
2021/07/21 11:00:28;;;;;;;16.92;10.80;;;;;;;;;;5035549;28;20413;-77
2021/07/21 11:03:24;;;;;;;18.38;10.75;;;;;;;;;;5040446;28;20029;-76
2021/07/21 11:06:34;;;;;;;15.38;10.38;;;;;;;;;;5046627;28;20028;-77
2021/07/21 11:09:32;;;;;;;17.15;10.25;;;;;;;;;;5043016;28;20154;-78
2021/07/21 11:11:58;;;;;;;16.33;10.20;;;;;;;;;;5046991;28;20021;-80
2021/07/21 11:14:29;;;;;;;18.60;10.45;;;;;;;;;;5046974;28;20075;-79
2021/07/21 11:17:07;;;;;;;16.23;10.75;;;;;;;;;;5040631;28;20025;-79
2021/07/21 11:19:42;;;;;;;16.33;9.95;;;;;;;;;;5032014;28;20032;-79
2021/07/21 11:22:28;;;;;;;17.85;10.60;;;;;;;;;;5046935;28;20027;-78
2021/07/21 11:25:06;;;;;;;19.08;11.30;;;;;;;;;;5043856;28;20452;-80
2021/07/21 11:27:57;;;;;;;18.38;11.50;;;;;;;;;;5037036;28;20511;-79
2021/07/21 11:31:02;;;;;;;16.55;10.95;;;;;;;;;;5045889;28;20422;-80
2021/07/21 11:34:01;;;;;;;12.45;9.93;;;;;;;;;;5041162;28;20029;-79
2021/07/21 11:36:39;;;;;;;15.68;10.80;;;;;;;;;;5045599;28;20515;-79
2021/07/21 11:39:06;;;;;;;16.40;10.65;;;;;;;;;;5044793;28;20044;-80
2021/07/21 11:41:44;;;;;;;15.80;9.98;;;;;;;;;;5042895;28;20079;-78
2021/07/21 11:44:10;;;;;;;16.23;10.60;;;;;;;;;;5046379;28;20036;-78
2021/07/21 11:46:42;;;;;;;14.35;10.43;;;;;;;;;;5044836;28;20178;-79
2021/07/21 11:49:07;;;;;;;14.95;10.13;;;;;;;;;;5043687;28;20415;-79
2021/07/21 11:51:33;;;;;;;17.92;11.38;;;;;;;;;;5039733;28;20036;-79
2021/07/21 11:53:58;;;;;;;15.68;11.00;;;;;;;;;;5042754;28;20148;-82
2021/07/21 11:56:24;;;;;;;15.57;10.50;;;;;;;;;;5046145;28;20025;-80
2021/07/21 11:58:50;;;;;;;18.20;11.07;;;;;;;;;;5045666;28;20107;-80
2021/07/21 12:01:25;;;;;;;14.20;10.57;;;;;;;;;;5038523;28;20033;-80
2021/07/21 12:03:50;;;;;;;61.63;26.05;;;;;;;;;;5059706;28;20029;-82
2021/07/21 12:06:27;;;;;;;23.33;13.93;;;;;;;;;;5040526;28;20032;-81
2021/07/21 12:08:55;;;;;;;17.00;10.93;;;;;;;;;;5044298;28;20080;-81
2021/07/21 12:11:25;;;;;;;13.00;10.40;;;;;;;;;;5038533;28;20027;-82
2021/07/21 12:13:58;;;;;;;15.98;10.93;;;;;;;;;;5048276;28;20032;-81
2021/07/21 12:16:25;;;;;;;18.55;11.43;;;;;;;;;;5043594;28;20087;-80
2021/07/21 12:19:02;;;;;;;18.67;11.32;;;;;;;;;;5044250;28;20044;-79
2021/07/21 12:21:30;;;;;;;14.82;11.15;;;;;;;;;;5035743;28;20048;-79
2021/07/21 12:23:58;;;;;;;16.55;11.80;;;;;;;;;;5030802;28;20064;-80
2021/07/21 12:26:23;;;;;;;14.77;11.00;;;;;;;;;;5046486;28;20037;-80
2021/07/21 12:28:56;;;;;;;17.45;11.57;;;;;;;;;;5046591;28;20025;-79
2021/07/21 12:31:26;;;;;;;18.20;11.25;;;;;;;;;;5045005;28;20114;-79
2021/07/21 12:33:52;;;;;;;14.98;11.43;;;;;;;;;;5048462;28;20029;-79
2021/07/21 12:36:17;;;;;;;16.58;11.40;;;;;;;;;;5040886;28;20025;-78
2021/07/21 12:38:43;;;;;;;15.75;10.65;;;;;;;;;;5041606;28;20037;-79
2021/07/21 12:41:11;;;;;;;15.98;11.82;;;;;;;;;;5048514;28;20845;-79
2021/07/21 12:43:37;;;;;;;18.67;12.07;;;;;;;;;;5040764;28;20567;-78
2021/07/21 12:46:13;;;;;;;18.13;11.60;;;;;;;;;;5050235;28;20060;-79
2021/07/21 12:48:39;;;;;;;17.08;11.85;;;;;;;;;;5037140;28;20021;-79
2021/07/21 12:51:05;;;;;;;17.70;12.32;;;;;;;;;;5041153;28;20020;-79
2021/07/21 12:53:33;;;;;;;17.42;11.93;;;;;;;;;;5042373;28;20039;-78
2021/07/21 12:55:59;;;;;;;16.38;11.55;;;;;;;;;;5030617;28;20025;-79
2021/07/21 12:58:24;;;;;;;14.50;11.10;;;;;;;;;;5036647;28;20041;-78
2021/07/21 13:00:52;;;;;;;17.85;11.77;;;;;;;;;;5039165;28;20037;-78
2021/07/21 13:03:19;;;;;;;18.17;12.10;;;;;;;;;;5043886;28;20033;-78
2021/07/21 13:05:56;;;;;;;18.23;11.75;;;;;;;;;;5044060;28;20413;-78
2021/07/21 13:08:29;;;;;;;15.45;11.20;;;;;;;;;;5040336;28;20025;-77
2021/07/21 13:11:12;;;;;;;17.50;11.90;;;;;;;;;;5038272;28;20027;-77
2021/07/21 13:13:40;;;;;;;14.95;11.90;;;;;;;;;;5039956;28;20029;-79
2021/07/21 13:16:24;;;;;;;20.13;12.45;;;;;;;;;;5042522;28;20106;-80
2021/07/21 13:18:51;;;;;;;17.50;11.35;;;;;;;;;;5038713;28;20057;-79
2021/07/21 13:21:34;;;;;;;19.30;12.70;;;;;;;;;;5046883;28;20029;-79
2021/07/21 13:24:07;;;;;;;17.13;11.93;;;;;;;;;;5044117;28;20052;-79
2021/07/21 13:26:34;;;;;;;17.27;12.02;;;;;;;;;;5043132;28;20483;-79
2021/07/21 13:29:02;;;;;;;18.40;12.43;;;;;;;;;;5045907;28;20029;-79
2021/07/21 13:31:57;;;;;;;;;;;;;;;;;;5040860;28;20120;-79
2021/07/21 13:34:26;;;;;;;19.17;12.32;;;;;;;;;;5034526;28;19947;-79
2021/07/21 13:36:54;;;;;;;20.23;11.95;;;;;;;;;;5035375;28;20112;-79
2021/07/21 13:39:22;;;;;;;18.40;11.85;;;;;;;;;;5047007;28;20048;-79
2021/07/21 13:41:52;;;;;;;;;;;;;;;;;;5045669;28;20025;-79
2021/07/21 13:44:38;;;;;;;17.38;11.65;;;;;;;;;;5039470;28;19928;-79
2021/07/21 13:47:04;;;;;;;17.63;12.07;;;;;;;;;;5043386;28;20175;-78
2021/07/21 13:49:38;;;;;;;16.58;11.85;;;;;;;;;;5036928;28;20026;-78
2021/07/21 13:52:12;;;;;;;16.33;12.18;;;;;;;;;;5037550;28;20024;-83
2021/07/21 13:54:39;;;;;;;18.75;12.82;;;;;;;;;;5038227;28;20029;-84
2021/07/21 13:57:13;;;;;;;16.60;11.90;;;;;;;;;;5045663;28;20140;-83
2021/07/21 13:59:40;;;;;;;15.77;12.15;;;;;;;;;;5042193;28;20408;-84
2021/07/21 14:02:07;;;;;;;16.37;12.13;;;;;;;;;;4996177;28;1173927;-84
2021/07/21 14:04:32;;;;;;;18.95;12.00;;;;;;;;;;5039549;28;20029;-84
2021/07/21 14:06:58;;;;;;;20.00;11.73;;;;;;;;;;5042105;28;20522;-84
2021/07/21 14:09:24;;;;;;;17.00;12.65;;;;;;;;;;5039106;28;20032;-84
2021/07/21 14:11:53;;;;;;;17.52;12.38;;;;;;;;;;5037805;28;20017;-84
2021/07/21 14:14:20;;;;;;;16.27;11.65;;;;;;;;;;5037706;28;20111;-82
2021/07/21 14:16:46;;;;;;;19.05;12.07;;;;;;;;;;5052592;28;20071;-83
2021/07/21 14:19:13;;;;;;;16.98;11.45;;;;;;;;;;5041533;28;20025;-83
2021/07/21 14:21:40;;;;;;;22.50;12.35;;;;;;;;;;5038981;28;20025;-81
2021/07/21 14:24:06;;;;;;;15.48;11.75;;;;;;;;;;5036756;28;20029;-81
2021/07/21 14:26:32;;;;;;;18.25;12.40;;;;;;;;;;5042567;28;20070;-81